Terminal Aerodrome Forecast
Issued by NWS

Home | Current Version | Previous Version | Text Only | Print | Product List | Glossary On
Versions: 1 2 3 4 5 6 7 8 9 10 11 12 13 14 15 16 17 18 19 20 21 22 23 24 25 26 27
957
FTUS43 KDVN 250710 AAB
TAFBRL
TAF AMD
KBRL 250710Z 2507/2606 07008KT 4SM -RA BR BKN003
      TEMPO 2507/2509 6SM BR BKN040
     FM250900 04014KT 3SM -RADZ BR BKN006 OVC015
     FM251600 05013G20KT 5SM BR OVC015
     FM252200 02012KT P6SM VCSH OVC025=

USA.gov is the U.S. government's official web portal to all federal, state and local government web resources and services.